Time;durP1;ratioP1;P1;durP2;ratioP2;P2;SDS_P1;SDS_P2;PMS_P1;PMS_P2;Temp;Humidity;BMP_temperature;BMP_pressure;BME280_temperature;BME280_humidity;BME280_pressure;Samples;Min_cycle;Max_cycle;Signal;HPM_P1;HPM_P2
2022/10/21 00:00:52;;;;;;;;;1.00;1.00;;;;;16.42;79.76;100269.56;5052750;28;46243;-70
2022/10/21 00:03:17;;;;;;;;;2.33;2.33;;;;;16.35;79.49;100262.75;5053903;28;45462;-70
2022/10/21 00:05:43;;;;;;;;;3.00;1.00;;;;;16.35;80.19;100271.56;5053889;28;45284;-71
2022/10/21 00:08:09;;;;;;;;;2.67;2.00;;;;;16.30;80.22;100255.84;5054429;28;45485;-71
2022/10/21 00:10:34;;;;;;;;;1.33;1.00;;;;;16.37;80.08;100263.56;5070810;28;46213;-71
2022/10/21 00:13:00;;;;;;;;;2.00;2.00;;;;;16.33;79.94;100245.16;5058785;28;45397;-71
2022/10/21 00:15:26;;;;;;;;;2.00;2.00;;;;;16.36;79.59;100233.63;5058539;28;45452;-69
2022/10/21 00:17:51;;;;;;;;;3.33;2.00;;;;;16.50;79.37;100246.44;5058890;28;45408;-70
2022/10/21 00:20:17;;;;;;;;;2.67;1.33;;;;;16.53;79.12;100241.06;5054208;28;45624;-69
2022/10/21 00:22:42;;;;;;;;;2.00;2.00;;;;;16.43;79.52;100232.53;5052328;28;45524;-68
2022/10/21 00:25:08;;;;;;;;;2.67;2.00;;;;;16.52;79.22;100249.91;5045468;28;45845;-71
2022/10/21 00:27:34;;;;;;;;;3.00;3.00;;;;;16.37;79.61;100224.78;5053753;28;45561;-70
2022/10/21 00:30:00;;;;;;;;;3.00;1.33;;;;;16.31;79.86;100209.13;5053548;28;46009;-69
2022/10/21 00:32:26;;;;;;;;;3.67;2.33;;;;;16.50;79.64;100241.16;5053914;28;45425;-71
2022/10/21 00:34:51;;;;;;;;;2.00;2.00;;;;;16.40;79.80;100213.28;5086230;27;45617;-69
2022/10/21 00:37:17;;;;;;;;;7.00;2.00;;;;;16.37;79.76;100224.78;5073766;28;45633;-71
2022/10/21 00:39:43;;;;;;;;;2.33;1.00;;;;;16.38;80.00;100226.53;5057791;28;45323;-70
2022/10/21 00:42:20;;;;;;;;;2.33;2.33;;;;;16.49;79.92;100237.66;5055477;28;45413;-71
2022/10/21 00:45:16;;;;;;;;;4.67;3.00;;;;;16.52;79.75;100240.19;5053681;28;45508;-70
2022/10/21 00:47:54;;;;;;;;;3.33;3.00;;;;;16.52;79.32;100226.97;5066280;28;45519;-70
2022/10/21 00:50:35;;;;;;;;;2.67;2.00;;;;;16.46;79.33;100219.22;5055949;28;46178;-70
2022/10/21 00:53:02;;;;;;;;;2.00;2.00;;;;;16.38;79.68;100197.47;5053346;28;45747;-69
2022/10/21 00:55:32;;;;;;;;;4.00;2.00;;;;;16.45;79.51;100206.94;5056869;28;45468;-70
2022/10/21 00:58:01;;;;;;;;;4.67;2.00;;;;;16.49;79.34;100207.69;5056870;28;46001;-67
2022/10/21 01:00:29;;;;;;;;;2.00;2.00;;;;;16.49;79.52;100205.94;5053362;28;46116;-68
2022/10/21 01:02:55;;;;;;;;;2.00;2.00;;;;;16.45;79.36;100188.44;5051841;28;45347;-69
2022/10/21 01:05:23;;;;;;;;;1.33;1.33;;;;;16.44;79.48;100183.19;5055732;28;45629;-69
2022/10/21 01:07:49;;;;;;;;;1.00;1.00;;;;;16.53;79.42;100183.75;5054344;28;45473;-68
2022/10/21 01:10:16;;;;;;;;;2.00;2.00;;;;;16.53;79.01;100174.97;5052445;28;46527;-70
2022/10/21 01:13:18;;;;;;;;;2.33;2.33;;;;;16.56;79.13;100174.00;5073051;27;45442;-68
2022/10/21 01:16:05;;;;;;;;;4.67;2.67;;;;;16.51;79.29;100167.09;5057407;28;45303;-70
2022/10/21 01:18:46;;;;;;;;;1.67;1.67;;;;;16.45;79.54;100154.06;5053608;28;45751;-68
2022/10/21 01:21:33;;;;;;;;;2.00;2.00;;;;;16.52;79.36;100160.88;5053034;28;45804;-69
2022/10/21 01:24:36;;;;;;;;;2.00;2.00;;;;;16.60;79.13;100143.91;5045607;28;45303;-68
2022/10/21 01:27:18;;;;;;;;;2.00;1.67;;;;;16.64;79.17;100141.13;5056109;28;45417;-70
2022/10/21 01:30:06;;;;;;;;;3.33;2.00;;;;;16.61;78.99;100145.63;5068624;28;45514;-69
2022/10/21 01:33:19;;;;;;;;;2.00;2.00;;;;;16.59;78.78;100152.78;5053055;28;45740;-68
2022/10/21 01:35:54;;;;;;;;;0.33;0.33;;;;;16.59;78.91;100166.00;5089293;27;45324;-70
2022/10/21 01:38:41;;;;;;;;;3.33;3.00;;;;;16.57;78.96;100163.38;5072822;27;45466;-70
2022/10/21 01:41:33;;;;;;;;;3.00;2.00;;;;;16.39;79.19;100134.88;5057536;28;45303;-70
2022/10/21 01:44:26;;;;;;;;;1.67;0.33;;;;;16.49;79.37;100147.78;5046266;28;45410;-70
2022/10/21 01:47:40;;;;;;;;;2.67;2.67;;;;;16.58;79.21;100162.47;5057339;28;45530;-70
2022/10/21 01:50:15;;;;;;;;;5.00;3.67;;;;;16.62;79.35;100177.31;5052758;28;45307;-67
2022/10/21 01:52:45;;;;;;;;;2.00;2.00;;;;;16.59;79.18;100155.41;5065131;28;45718;-71
2022/10/21 01:55:18;;;;;;;;;1.33;1.33;;;;;16.69;79.37;100186.78;5050600;28;45486;-70
2022/10/21 01:57:51;;;;;;;;;0.00;0.00;;;;;16.67;79.54;100219.47;5049291;28;45540;-70
2022/10/21 02:00:17;;;;;;;;;4.00;3.00;;;;;16.71;80.20;100239.63;5050420;28;45397;-69
2022/10/21 02:02:48;;;;;;;;;3.00;3.00;;;;;16.62;80.58;100227.56;5042502;28;45601;-68
2022/10/21 02:05:24;;;;;;;;;3.00;3.00;;;;;16.66;81.21;100252.13;5053897;28;45940;-70
2022/10/21 02:07:50;;;;;;;;;1.67;1.67;;;;;16.67;81.27;100275.88;5052755;28;45422;-72
2022/10/21 02:10:17;;;;;;;;;5.00;2.00;;;;;16.78;81.47;100287.91;5052580;28;45756;-69
2022/10/21 02:12:46;;;;;;;;;5.00;3.00;;;;;16.79;81.50;100300.25;5052578;28;45373;-70
2022/10/21 02:15:14;;;;;;;;;3.00;2.67;;;;;16.75;81.58;100272.97;5052518;28;46158;-68
2022/10/21 02:17:45;;;;;;;;;5.33;2.00;;;;;16.63;83.13;100270.72;5055560;28;45438;-70
2022/10/21 02:20:14;;;;;;;;;2.67;2.67;;;;;16.66;82.85;100271.50;5057144;28;45280;-70
2022/10/21 02:22:42;;;;;;;;;4.00;3.00;;;;;16.70;82.50;100253.75;5054913;28;45831;-70
2022/10/21 02:25:20;;;;;;;;;1.00;1.00;;;;;16.79;82.48;100240.28;5054203;28;46599;-71
2022/10/21 02:27:48;;;;;;;;;3.00;3.00;;;;;16.86;82.39;100230.38;5058839;28;45661;-70
2022/10/21 02:30:14;;;;;;;;;2.00;1.00;;;;;16.85;82.54;100226.88;5056314;28;45566;-71
2022/10/21 02:32:58;;;;;;;;;2.00;1.00;;;;;16.91;82.09;100215.22;5055812;28;45354;-70
2022/10/21 02:35:29;;;;;;;;;1.00;1.00;;;;;16.91;82.28;100197.56;5055779;28;46679;-70
2022/10/21 02:38:12;;;;;;;;;1.00;1.00;;;;;16.97;82.22;100182.44;5055479;28;45682;-70
2022/10/21 02:40:43;;;;;;;;;3.33;2.00;;;;;16.89;82.17;100143.84;5054502;28;45456;-70
2022/10/21 02:43:19;;;;;;;;;1.33;1.33;;;;;16.95;82.29;100117.19;5055808;28;45430;-69
2022/10/21 02:45:47;;;;;;;;;2.67;2.00;;;;;16.93;82.84;100113.72;5054404;28;45811;-71
2022/10/21 02:48:12;;;;;;;;;2.00;2.00;;;;;16.87;83.53;100118.38;5054890;28;45593;-71
2022/10/21 02:50:38;;;;;;;;;2.33;1.00;;;;;16.72;83.67;100093.28;5055363;28;45507;-71
2022/10/21 02:53:03;;;;;;;;;2.00;2.00;;;;;16.83;83.62;100117.63;5056125;28;45483;-71
2022/10/21 02:55:29;;;;;;;;;2.00;2.00;;;;;16.86;83.93;100136.03;5055209;28;45448;-71
2022/10/21 02:57:55;;;;;;;;;4.67;2.00;;;;;16.74;84.49;100117.88;5055716;28;45556;-69
2022/10/21 03:00:20;;;;;;;;;4.00;3.00;;;;;16.75;84.47;100130.19;5055685;28;45349;-70
2022/10/21 03:02:46;;;;;;;;;3.00;3.00;;;;;16.77;84.86;100122.22;5055716;28;45526;-70
2022/10/21 03:05:11;;;;;;;;;2.00;2.00;;;;;16.72;85.75;100119.72;5055657;28;46334;-69
2022/10/21 03:07:38;;;;;;;;;2.33;1.00;;;;;16.60;85.87;100097.19;5058190;28;45335;-71
2022/10/21 03:10:04;;;;;;;;;3.00;3.00;;;;;16.54;86.72;100110.63;5059461;28;45478;-71
2022/10/21 03:12:30;;;;;;;;;1.00;1.00;;;;;16.46;86.68;100113.50;5056298;28;45472;-70
2022/10/21 03:14:56;;;;;;;;;2.00;2.00;;;;;16.48;87.16;100127.53;5054711;28;45739;-69
2022/10/21 03:17:21;;;;;;;;;3.33;3.00;;;;;16.53;87.26;100145.88;5055421;28;45520;-71
2022/10/21 03:19:47;;;;;;;;;2.33;2.00;;;;;16.53;86.93;100162.59;5054997;28;45519;-71
2022/10/21 03:22:12;;;;;;;;;3.33;2.00;;;;;16.54;86.88;100167.00;5054956;28;45347;-71
2022/10/21 03:24:38;;;;;;;;;1.33;1.33;;;;;16.49;86.48;100182.16;5054661;28;46338;-71
2022/10/21 03:27:03;;;;;;;;;3.00;2.00;;;;;16.54;86.53;100193.44;5073364;28;45434;-70
2022/10/21 03:29:29;;;;;;;;;4.00;2.00;;;;;16.50;86.49;100189.16;5059559;28;45500;-71
2022/10/21 03:31:54;;;;;;;;;2.00;2.00;;;;;16.48;86.05;100185.69;5071166;27;45567;-67
2022/10/21 03:34:20;;;;;;;;;2.33;2.00;;;;;16.56;85.93;100189.88;5053864;28;46700;-70
2022/10/21 03:36:45;;;;;;;;;2.33;2.00;;;;;16.50;86.28;100178.56;5055822;28;45291;-70
2022/10/21 03:39:11;;;;;;;;;3.00;2.00;;;;;16.43;86.40;100162.97;5059248;28;45280;-70
2022/10/21 03:41:36;;;;;;;;;2.67;2.00;;;;;16.41;85.89;100151.56;5056581;28;45591;-71
2022/10/21 03:44:03;;;;;;;;;2.67;1.00;;;;;16.40;85.88;100148.06;5053093;28;46484;-70
2022/10/21 03:46:28;;;;;;;;;2.00;2.00;;;;;16.41;85.83;100162.13;5069925;27;45843;-70
2022/10/21 03:48:54;;;;;;;;;1.00;1.00;;;;;16.29;85.78;100150.16;5070784;27;45379;-71
2022/10/21 03:51:20;;;;;;;;;1.00;1.00;;;;;16.24;85.73;100134.47;5053566;28;45580;-70
2022/10/21 03:53:45;;;;;;;;;3.00;1.33;;;;;16.30;85.98;100150.13;5071466;27;47229;-71
2022/10/21 03:56:11;;;;;;;;;5.00;2.33;;;;;16.31;85.88;100159.78;5071986;28;45376;-70
2022/10/21 03:58:37;;;;;;;;;4.00;2.00;;;;;16.41;86.19;100178.84;5054594;28;45384;-71
2022/10/21 04:01:03;;;;;;;;;3.67;2.00;;;;;16.36;86.33;100151.72;5069742;28;45450;-73
2022/10/21 04:03:29;;;;;;;;;3.00;3.00;;;;;16.36;86.34;100164.06;5054143;28;45578;-70
2022/10/21 04:05:55;;;;;;;;;2.67;2.00;;;;;16.41;86.40;100178.00;5054220;28;45557;-71
2022/10/21 04:08:20;;;;;;;;;2.00;2.00;;;;;16.31;86.04;100166.84;5058783;28;45295;-70
2022/10/21 04:10:47;;;;;;;;;2.00;2.00;;;;;16.41;86.57;100176.22;5055417;28;45536;-70
2022/10/21 04:13:12;;;;;;;;;2.00;2.00;;;;;16.42;86.88;100180.59;5053840;28;46054;-69
2022/10/21 04:15:38;;;;;;;;;2.33;2.33;;;;;16.32;87.08;100176.50;5057249;28;45486;-70
2022/10/21 04:18:05;;;;;;;;;1.00;1.00;;;;;16.33;86.86;100176.47;5058782;28;45429;-70
2022/10/21 04:20:30;;;;;;;;;3.67;3.33;;;;;16.45;86.44;100190.22;5057135;28;45428;-70
2022/10/21 04:22:56;;;;;;;;;5.33;3.33;;;;;16.36;86.85;100178.13;5053814;28;45591;-70
2022/10/21 04:25:22;;;;;;;;;3.00;3.00;;;;;16.27;87.21;100162.56;5052440;28;45431;-69
2022/10/21 04:27:47;;;;;;;;;4.67;3.00;;;;;16.39;87.87;100182.47;5053739;28;45398;-68
2022/10/21 04:30:13;;;;;;;;;4.00;3.00;;;;;16.39;87.43;100174.53;5053657;28;45525;-67
2022/10/21 04:32:39;;;;;;;;;1.67;1.67;;;;;16.23;87.73;100152.97;5053659;28;45548;-68
2022/10/21 04:35:04;;;;;;;;;4.00;4.00;;;;;16.42;87.51;100185.00;5052428;28;45434;-68
2022/10/21 04:37:30;;;;;;;;;7.00;4.00;;;;;16.32;87.96;100158.00;5052460;28;45479;-69
2022/10/21 04:39:56;;;;;;;;;5.33;5.00;;;;;16.42;87.84;100177.06;5054006;28;45402;-69
2022/10/21 04:42:22;;;;;;;;;5.00;4.00;;;;;16.41;88.40;100172.72;5053659;28;45453;-69
2022/10/21 04:44:48;;;;;;;;;4.00;3.33;;;;;16.33;88.20;100162.38;5056340;28;45310;-69
2022/10/21 04:47:14;;;;;;;;;3.67;3.67;;;;;16.49;87.97;100186.53;5058221;28;45621;-68
2022/10/21 04:49:39;;;;;;;;;3.67;3.00;;;;;16.52;87.52;100168.81;5058366;28;45610;-70
2022/10/21 04:52:05;;;;;;;;;4.00;4.00;;;;;16.58;87.33;100175.69;5055855;28;46212;-68
2022/10/21 04:54:31;;;;;;;;;5.67;4.00;;;;;16.42;87.88;100164.75;5053448;28;45342;-68
2022/10/21 04:56:56;;;;;;;;;7.00;4.67;;;;;16.48;88.02;100171.59;5053499;28;45441;-68
2022/10/21 04:59:22;;;;;;;;;8.00;3.33;;;;;16.53;87.95;100177.59;5052209;28;45386;-68
2022/10/21 05:01:47;;;;;;;;;6.33;5.00;;;;;16.51;88.28;100180.31;5053495;28;45600;-70
2022/10/21 05:04:13;;;;;;;;;7.00;4.33;;;;;16.53;88.23;100196.97;5056074;28;45778;-71
2022/10/21 05:06:38;;;;;;;;;9.67;4.67;;;;;16.49;88.58;100187.44;5038774;28;45741;-71
2022/10/21 05:09:05;;;;;;;;;7.67;6.00;;;;;16.50;88.62;100183.84;5053278;28;46034;-71
2022/10/21 05:11:30;;;;;;;;;4.00;4.00;;;;;16.51;88.56;100166.22;5056202;28;45547;-70
2022/10/21 05:13:56;;;;;;;;;4.33;3.67;;;;;16.58;88.17;100172.19;5057601;28;45469;-71
2022/10/21 05:16:22;;;;;;;;;5.00;4.00;;;;;16.52;88.42;100176.75;5056679;28;45576;-70
2022/10/21 05:18:48;;;;;;;;;5.00;5.00;;;;;16.61;88.45;100190.56;5054023;28;45565;-69
2022/10/21 05:21:14;;;;;;;;;7.00;6.00;;;;;16.59;88.48;100190.66;5052769;27;46428;-71
2022/10/21 05:23:40;;;;;;;;;8.00;5.33;;;;;16.55;88.51;100191.66;5065453;27;45385;-68
2022/10/21 05:26:06;;;;;;;;;7.67;5.00;;;;;16.56;88.31;100198.66;5068806;27;45848;-70
2022/10/21 05:28:32;;;;;;;;;6.67;4.33;;;;;16.50;88.13;100183.84;5052967;28;45624;-70
2022/10/21 05:30:58;;;;;;;;;4.00;4.00;;;;;16.61;87.75;100190.56;5068333;27;46826;-71
2022/10/21 05:33:23;;;;;;;;;8.00;4.67;;;;;16.62;87.85;100179.09;5054697;28;45310;-71
2022/10/21 05:35:57;;;;;;;;;8.67;4.00;;;;;16.62;87.36;100177.31;5057158;28;45348;-71
2022/10/21 05:38:23;;;;;;;;;3.67;2.67;;;;;16.69;87.50;100189.44;5072699;27;45610;-70
2022/10/21 05:40:49;;;;;;;;;4.00;4.00;;;;;16.73;87.07;100179.63;5057279;28;46157;-71
2022/10/21 05:43:14;;;;;;;;;4.00;4.00;;;;;16.72;87.15;100176.09;5069034;28;45770;-71
2022/10/21 05:45:40;;;;;;;;;9.00;6.00;;;;;16.81;86.71;100182.91;5052998;28;45524;-71
2022/10/21 05:48:05;;;;;;;;;8.00;5.00;;;;;16.69;87.25;100173.56;5052985;28;45437;-69
2022/10/21 05:50:31;;;;;;;;;4.00;4.00;;;;;16.77;87.20;100194.47;5054372;28;46321;-71
2022/10/21 05:52:57;;;;;;;;;4.67;4.67;;;;;16.73;86.92;100174.34;5054345;28;45727;-69
2022/10/21 05:55:23;;;;;;;;;5.33;5.33;;;;;16.82;86.54;100204.94;5052709;28;45338;-70
2022/10/21 05:57:49;;;;;;;;;5.67;4.67;;;;;16.82;86.25;100203.16;5070811;27;45823;-70
2022/10/21 06:00:15;;;;;;;;;4.00;4.00;;;;;16.88;86.53;100204.75;5072474;28;45597;-69
2022/10/21 06:02:40;;;;;;;;;6.00;4.00;;;;;16.92;85.82;100212.53;5067761;27;45569;-71
2022/10/21 06:05:06;;;;;;;;;6.00;4.33;;;;;16.90;85.96;100224.94;5082387;27;45616;-70
2022/10/21 06:07:32;;;;;;;;;6.33;4.33;;;;;16.86;86.43;100236.53;5056593;28;45472;-69
2022/10/21 06:09:58;;;;;;;;;6.67;5.67;;;;;16.90;86.19;100251.41;5056226;28;45692;-71
2022/10/21 06:12:23;;;;;;;;;6.67;5.00;;;;;16.89;85.92;100247.00;5056785;28;45625;-70
2022/10/21 06:14:49;;;;;;;;;3.00;3.00;;;;;17.00;85.45;100269.63;5056864;28;45834;-71
2022/10/21 06:17:15;;;;;;;;;6.00;4.33;;;;;16.98;85.96;100277.59;5038448;28;45545;-69
2022/10/21 06:19:40;;;;;;;;;8.00;5.00;;;;;16.91;86.19;100279.56;5056061;28;46087;-69
2022/10/21 06:22:07;;;;;;;;;5.00;4.00;;;;;16.90;86.04;100277.00;5059157;28;45415;-71
2022/10/21 06:24:32;;;;;;;;;7.00;4.67;;;;;16.87;86.06;100287.63;5046511;28;45579;-69
2022/10/21 06:26:58;;;;;;;;;8.67;5.00;;;;;16.84;86.42;100293.88;5056575;28;45361;-68
2022/10/21 06:29:24;;;;;;;;;5.33;5.33;;;;;16.82;86.57;100279.00;5056766;28;45357;-69
2022/10/21 06:31:49;;;;;;;;;6.67;5.00;;;;;16.75;86.47;100270.34;5056371;28;45462;-71
2022/10/21 06:34:15;;;;;;;;;6.33;5.00;;;;;16.79;86.84;100301.09;5055110;28;45590;-71
2022/10/21 06:36:40;;;;;;;;;6.67;4.33;;;;;16.84;86.54;100320.34;5056413;28;45445;-70
2022/10/21 06:39:07;;;;;;;;;11.33;6.00;;;;;16.88;86.30;100324.63;5055838;28;45960;-71
2022/10/21 06:41:33;;;;;;;;;6.67;6.00;;;;;16.93;86.38;100330.66;5056419;28;45528;-70
2022/10/21 06:43:59;;;;;;;;;8.33;5.00;;;;;16.85;86.05;100322.09;5057077;28;45634;-69
2022/10/21 06:46:24;;;;;;;;;7.00;5.00;;;;;16.88;86.12;100315.84;5057575;28;45408;-68
2022/10/21 06:48:50;;;;;;;;;8.00;5.00;;;;;16.91;86.16;100329.81;5072096;27;46980;-71
2022/10/21 06:51:18;;;;;;;;;9.67;5.67;;;;;16.86;86.25;100321.16;5058411;28;45318;-72
2022/10/21 06:53:45;;;;;;;;;7.00;4.00;;;;;16.91;86.47;100339.53;5072278;28;45577;-69
2022/10/21 06:56:15;;;;;;;;;5.00;5.00;;;;;16.84;86.86;100328.28;5071466;27;45455;-70
2022/10/21 06:58:42;;;;;;;;;8.00;5.00;;;;;16.75;86.77;100312.66;5055462;27;46085;-71
2022/10/21 07:01:10;;;;;;;;;4.33;4.00;;;;;16.78;87.13;100319.66;5056084;27;45409;-71
2022/10/21 07:03:36;;;;;;;;;6.00;4.67;;;;;16.86;86.86;100317.66;5071045;27;45514;-71
2022/10/21 07:06:02;;;;;;;;;2.33;2.00;;;;;16.84;86.69;100301.81;5060423;28;45473;-68
2022/10/21 07:08:29;;;;;;;;;6.00;6.00;;;;;16.82;86.91;100308.94;5059562;28;45524;-70
2022/10/21 07:10:55;;;;;;;;;7.00;4.00;;;;;16.77;86.94;100297.59;5057225;28;45475;-70
2022/10/21 07:13:21;;;;;;;;;7.67;7.67;;;;;16.80;86.94;100308.16;5055815;28;45501;-70
2022/10/21 07:15:56;;;;;;;;;10.33;8.67;;;;;16.80;87.08;100328.41;5054467;28;45855;-69
2022/10/21 07:18:21;;;;;;;;;9.33;7.00;;;;;16.69;87.68;100332.22;5056035;28;46487;-70
2022/10/21 07:20:47;;;;;;;;;12.67;7.33;;;;;16.76;87.74;100359.34;5058395;28;45453;-67
2022/10/21 07:23:12;;;;;;;;;5.33;5.00;;;;;16.74;87.29;100366.47;5058064;28;45415;-69
2022/10/21 07:25:38;;;;;;;;;7.33;5.33;;;;;16.73;87.60;100356.81;5055336;28;45429;-71
2022/10/21 07:28:03;;;;;;;;;12.00;9.00;;;;;16.71;87.63;100358.63;5057007;28;45705;-71
2022/10/21 07:30:29;;;;;;;;;8.67;7.67;;;;;16.71;87.63;100343.63;5059963;28;45402;-71
2022/10/21 07:32:55;;;;;;;;;8.00;5.00;;;;;16.84;86.89;100330.06;5055081;28;45403;-70
2022/10/21 07:35:20;;;;;;;;;8.00;7.33;;;;;16.88;86.63;100347.59;5054321;28;45581;-70
2022/10/21 07:37:46;;;;;;;;;7.33;6.67;;;;;16.80;86.87;100368.97;5057131;28;47954;-71
2022/10/21 07:40:12;;;;;;;;;7.33;7.33;;;;;16.84;87.07;100370.59;5057558;28;45467;-68
2022/10/21 07:42:37;;;;;;;;;6.67;6.00;;;;;16.80;87.08;100373.38;5055091;28;45598;-70
2022/10/21 07:45:03;;;;;;;;;5.00;5.00;;;;;16.84;86.41;100375.88;5055046;28;45863;-73
2022/10/21 07:47:28;;;;;;;;;6.00;3.00;;;;;16.88;85.39;100376.69;5053744;28;46602;-71
2022/10/21 07:49:54;;;;;;;;;4.67;3.00;;;;;16.82;85.77;100383.00;5054204;28;45855;-71
2022/10/21 07:52:20;;;;;;;;;6.33;4.33;;;;;16.86;86.21;100389.94;5055108;28;45730;-70
2022/10/21 07:54:45;;;;;;;;;5.33;4.00;;;;;16.85;86.11;100366.19;5059691;28;45413;-70
2022/10/21 07:57:11;;;;;;;;;6.00;5.00;;;;;16.82;87.18;100382.13;5057990;28;45729;-70
2022/10/21 07:59:36;;;;;;;;;6.00;4.33;;;;;16.69;87.53;100365.75;5056002;28;45773;-71
2022/10/21 08:02:02;;;;;;;;;6.67;6.00;;;;;16.71;87.96;100379.78;5057432;28;45561;-70
2022/10/21 08:04:32;;;;;;;;;9.67;6.67;;;;;16.69;87.71;100365.75;5059647;28;45449;-71
2022/10/21 08:07:17;;;;;;;;;5.00;5.00;;;;;16.79;87.75;100375.16;5057241;28;45539;-70
2022/10/21 08:09:42;;;;;;;;;7.67;5.67;;;;;16.83;87.50;100381.25;5054471;28;45758;-71
2022/10/21 08:12:08;;;;;;;;;7.00;6.67;;;;;16.83;87.70;100387.38;5056451;28;45391;-71
2022/10/21 08:14:33;;;;;;;;;6.33;6.33;;;;;16.84;87.16;100382.97;5059279;28;45488;-70
2022/10/21 08:16:59;;;;;;;;;3.33;3.33;;;;;16.89;86.87;100379.25;5055699;28;45956;-70
2022/10/21 08:19:28;;;;;;;;;5.67;5.00;;;;;17.08;87.07;100379.56;5054101;28;45959;-70
2022/10/21 08:21:54;;;;;;;;;2.67;2.00;;;;;17.28;86.01;100378.13;5053727;28;45495;-69
2022/10/21 08:24:20;;;;;;;;;6.00;5.33;;;;;17.33;85.50;100366.44;5057255;28;45386;-71
2022/10/21 08:26:45;;;;;;;;;5.67;5.33;;;;;17.57;85.62;100379.81;5058245;28;46094;-68
2022/10/21 08:29:11;;;;;;;;;6.67;5.33;;;;;17.91;84.20;100387.53;5058598;28;45485;-68
2022/10/21 08:31:38;;;;;;;;;7.33;5.33;;;;;18.17;83.28;100380.47;5053562;28;45483;-70
2022/10/21 08:34:04;;;;;;;;;5.00;5.00;;;;;18.43;82.05;100372.44;5052915;28;46118;-71
2022/10/21 08:36:29;;;;;;;;;6.00;6.00;;;;;18.67;80.76;100368.97;5053662;28;46357;-69
2022/10/21 08:38:57;;;;;;;;;5.33;4.67;;;;;18.76;79.97;100384.53;5074237;28;45529;-69
2022/10/21 08:41:28;;;;;;;;;4.33;4.33;;;;;18.99;79.79;100386.38;5059318;28;45592;-70
2022/10/21 08:44:28;;;;;;;;;6.33;5.00;;;;;19.09;78.18;100397.47;5059791;28;45456;-71
2022/10/21 08:47:05;;;;;;;;;7.33;4.67;;;;;19.04;77.61;100397.66;5074047;28;46887;-71
2022/10/21 08:49:57;;;;;;;;;5.33;4.33;;;;;19.09;77.37;100393.03;5056341;28;45801;-71
2022/10/21 08:52:35;;;;;;;;;5.00;4.00;;;;;19.39;76.30;100396.28;5070236;27;45397;-70
2022/10/21 08:55:12;;;;;;;;;5.00;3.33;;;;;19.54;76.06;100401.91;5069851;28;45563;-70
2022/10/21 08:57:37;;;;;;;;;7.00;5.00;;;;;19.80;74.10;100391.09;5053072;28;45562;-70
2022/10/21 09:00:24;;;;;;;;;5.67;5.67;;;;;19.98;74.80;100384.16;5055895;28;45471;-72
2022/10/21 09:03:08;;;;;;;;;4.00;3.67;;;;;20.43;72.28;100403.47;5054634;28;45414;-71
2022/10/21 09:05:52;;;;;;;;;7.00;5.67;;;;;20.49;72.34;100397.91;5046757;28;45821;-69
2022/10/21 09:08:23;;;;;;;;;4.67;4.67;;;;;20.49;71.74;100403.22;5047479;28;47586;-71
2022/10/21 09:10:55;;;;;;;;;6.00;6.00;;;;;20.51;72.12;100398.69;5051327;28;45551;-71
2022/10/21 09:13:30;;;;;;;;;4.33;4.33;;;;;20.05;72.85;100390.94;5056017;28;45400;-71
2022/10/21 09:16:11;;;;;;;;;5.67;5.67;;;;;19.88;74.23;100388.13;5054529;28;45481;-72
2022/10/21 09:19:00;;;;;;;;;7.00;6.33;;;;;20.08;73.34;100396.13;5050112;28;45596;-71
2022/10/21 09:21:47;;;;;;;;;6.00;6.00;;;;;19.72;73.74;100401.19;5045794;28;45449;-70
2022/10/21 09:24:23;;;;;;;;;7.67;6.00;;;;;19.39;75.38;100420.19;5051918;28;45572;-72
2022/10/21 09:26:51;;;;;;;;;4.67;4.67;;;;;19.57;75.91;100401.78;5053770;28;45714;-69
2022/10/21 09:29:35;;;;;;;;;6.00;6.00;;;;;21.07;72.48;100397.94;5053784;28;46330;-69
2022/10/21 09:32:15;;;;;;;;;4.00;4.00;;;;;22.61;65.88;100391.16;5058336;27;45785;-70
2022/10/21 09:34:56;;;;;;;;;5.33;4.33;;;;;21.95;65.72;100399.03;5059719;28;45383;-68
2022/10/21 09:37:37;;;;;;;;;4.33;4.33;;;;;21.13;68.57;100400.28;5061153;28;45461;-69
2022/10/21 09:40:17;;;;;;;;;7.33;5.00;;;;;20.39;70.99;100378.81;5060649;28;46150;-70
2022/10/21 09:42:44;;;;;;;;;5.33;4.33;;;;;20.10;71.59;100374.78;5061232;28;45531;-74
2022/10/21 09:45:29;;;;;;;;;3.33;3.33;;;;;20.94;70.07;100391.44;5062084;28;45439;-72
2022/10/21 09:48:18;;;;;;;;;6.00;3.33;;;;;22.08;66.68;100385.94;5062227;28;45507;-71
2022/10/21 09:51:02;;;;;;;;;6.00;5.00;;;;;22.17;66.31;100386.31;5061350;28;45266;-74
2022/10/21 09:53:44;;;;;;;;;9.33;4.00;;;;;21.89;66.49;100370.00;5061084;28;45368;-70
2022/10/21 09:56:34;;;;;;;;;5.00;3.00;;;;;22.16;66.00;100384.59;5061300;28;45418;-72
2022/10/21 09:59:10;;;;;;;;;5.67;5.67;;;;;22.53;64.23;100387.16;5060552;28;45547;-72
2022/10/21 10:01:38;;;;;;;;;6.00;5.67;;;;;23.50;61.73;100388.91;5060590;28;45704;-69
2022/10/21 10:04:20;;;;;;;;;7.00;5.75;;;;;26.92;54.19;100377.78;5056432;28;45474;-70
2022/10/21 10:06:46;;;;;;;;;7.25;5.75;;;;;28.86;47.86;100383.69;5058263;28;45729;-77
2022/10/21 10:09:32;;;;;;;;;4.75;4.75;;;;;27.16;49.41;100386.75;5058163;28;45612;-73
2022/10/21 10:12:03;;;;;;;;;6.00;6.00;;;;;26.71;50.93;100394.47;5057593;28;46479;-67
2022/10/21 10:14:35;;;;;;;;;4.25;4.25;;;;;28.80;46.81;100377.94;5039149;28;45712;-74
2022/10/21 10:17:22;;;;;;;;;5.50;5.50;;;;;31.09;41.61;100381.09;5071697;27;45736;-71
2022/10/21 10:20:18;;;;;;;;;4.00;4.00;;;;;33.35;38.49;100376.88;5055700;28;45868;-72
2022/10/21 10:23:01;;;;;;;;;5.40;4.00;;;;;34.37;34.16;100370.16;5048304;28;45611;-70
2022/10/21 10:25:31;;;;;;;;;8.40;5.00;;;;;35.23;33.87;100366.53;5045472;28;45607;-71
2022/10/21 10:28:17;;;;;;;;;4.80;4.20;;;;;35.78;31.96;100372.41;5046673;28;45467;-71
2022/10/21 10:30:43;;;;;;;;;7.00;4.20;;;;;35.97;30.95;100384.84;5050641;28;45865;-73
2022/10/21 10:33:21;;;;;;;;;3.25;3.25;;;;;35.63;31.33;100374.97;5071965;27;46958;-71
2022/10/21 10:35:56;;;;;;;;;5.00;5.00;;;;;35.86;30.70;100365.13;5051028;28;45440;-71
2022/10/21 10:38:35;;;;;;;;;8.00;4.00;;;;;35.43;30.80;100371.69;5046703;28;45385;-70
2022/10/21 10:41:08;;;;;;;;;5.80;4.60;;;;;36.28;30.22;100374.13;5041459;28;45340;-72
2022/10/21 10:43:40;;;;;;;;;6.20;5.80;;;;;36.70;30.27;100357.50;5043774;28;45806;-72
2022/10/21 10:46:10;;;;;;;;;5.20;3.20;;;;;36.15;31.14;100366.47;5049098;28;45377;-69
2022/10/21 10:48:45;;;;;;;;;4.00;4.00;;;;;34.98;32.07;100373.75;5057729;28;45470;-72
2022/10/21 10:51:31;;;;;;;;;4.80;4.80;;;;;35.08;32.03;100359.16;5055997;28;45850;-69
2022/10/21 10:54:20;;;;;;;;;5.00;4.20;;;;;34.93;31.91;100372.50;5055714;27;46227;-71
2022/10/21 10:57:14;;;;;;;;;4.00;4.00;;;;;35.24;31.30;100370.13;5047894;28;45529;-72
2022/10/21 11:00:01;;;;;;;;;3.00;3.00;;;;;34.55;32.09;100369.25;5053878;28;45450;-71
2022/10/21 11:02:48;;;;;;;;;7.60;4.20;;;;;34.41;32.61;100368.00;5038762;28;45970;-71
2022/10/21 11:05:16;;;;;;;;;2.80;2.40;;;;;33.74;33.19;100368.50;5048566;28;47657;-69
2022/10/21 11:07:50;;;;;;;;;5.00;4.00;;;;;33.29;33.83;100366.66;5049591;28;45587;-71
2022/10/21 11:10:24;;;;;;;;;4.00;4.00;;;;;33.00;34.29;100366.78;5053901;28;45556;-71
2022/10/21 11:12:50;;;;;;;;;5.60;3.60;;;;;33.44;34.15;100361.56;5054754;28;45846;-72
2022/10/21 11:15:16;;;;;;;;;5.00;3.00;;;;;34.33;32.54;100360.63;5053897;28;46249;-73
2022/10/21 11:18:01;;;;;;;;;3.00;1.25;;;;;35.08;31.06;100356.44;5055431;28;45481;-73
2022/10/21 11:20:58;;;;;;;;;3.20;2.00;;;;;35.62;30.71;100351.50;5058143;28;45656;-73
2022/10/21 11:23:48;;;;;;;;;4.00;2.60;;;;;36.06;29.68;100351.97;5064897;27;45480;-73
2022/10/21 11:26:25;;;;;;;;;3.60;3.00;;;;;35.84;29.95;100349.97;5048173;28;45617;-70
2022/10/21 11:29:06;;;;;;;;;3.00;1.80;;;;;35.97;29.03;100342.09;5050455;28;46875;-71
2022/10/21 11:31:41;;;;;;;;;4.00;4.00;;;;;35.40;29.48;100361.13;5048205;28;45406;-67
2022/10/21 11:34:16;;;;;;;;;6.20;3.60;;;;;35.45;28.08;100365.06;5050544;28;45386;-71
2022/10/21 11:37:12;;;;;;;;;4.00;3.40;;;;;34.47;29.82;100370.06;5054892;28;47845;-72
2022/10/21 11:39:56;;;;;;;;;3.60;2.80;;;;;33.37;30.50;100376.75;5054554;28;45630;-70
2022/10/21 11:42:26;;;;;;;;;6.00;3.20;;;;;32.52;31.58;100366.00;5051794;28;45415;-69